• Join FlightAware (Why Join?)
  • Login
  • US Flag 
08:05PM EDT


 

Airport Tracker/Info


-or-


 

Live Flight TrackerFlight Track Log ✈ FFT571 ✈ 24-Apr-2012 ✈ KDEN - KSLC

Flight Track Log - Related Links

Times and Time Zones

All times are in EDT time to prevent confusion due to time zone crossing. See the FFT571 flight status page for this flight to view local times or setup timezone preferences in your user account.

Time Position Orientation Groundspeed Altitude Reporting Facility
EDT Latitude Longitude Course Direction KTS MPH feet Rate Location/Type
11:38PM 39.8500 -104.7833 285° West 193 222 6,900  Level Denver TRACON
11:39PM 39.8667 -104.8667 282° West 278 320 7,900 1,860 Climbing Denver TRACON
11:40PM 39.8833 -104.9667 290° West 301 346 10,900 2,820 Climbing Denver TRACON
11:41PM 39.9167 -105.0833 274° West 324 373 13,600 2,580 Climbing Denver TRACON
11:42PM 39.9194 -105.1331 287° West 330 380 14,900 2,640 Climbing Denver Center
11:43PM 39.9458 -105.2489 284° West 330 380 17,900 2,700 Climbing Denver Center
11:44PM 39.9678 -105.3678 285° West 330 380 20,300 2,280 Climbing Denver Center
11:45PM 39.9919 -105.4894 284° West 341 392 22,500 2,220 Climbing Denver Center
11:46PM 40.0181 -105.6272 274° West 356 410 24,800 1,800 Climbing Denver Center
11:47PM 40.0253 -105.7600 267° West 361 415 26,200 1,560 Climbing Denver Center
11:48PM 40.0197 -105.8983 267° West 375 432 28,000 1,800 Climbing Denver Center
11:49PM 40.0139 -106.0422 267° West 394 453 29,900 1,680 Climbing Denver Center
11:50PM 40.0083 -106.1833 267° West 395 455 31,400 1,560 Climbing Denver Center
11:51PM 40.0022 -106.3242 268° West 395 455 33,100 1,260 Climbing Denver Center
11:52PM 39.9981 -106.4653 275° West 395 455 34,000 1,080 Climbing Denver Center
11:53PM 40.0064 -106.5925 275° West 390 449 35,300 960 Climbing Denver Center
11:54PM 40.0167 -106.7472 273° West 395 455 36,000 300 Climbing Denver Center
11:55PM 40.0225 -106.8800 273° West 390 449 36,000  Level Denver Center
11:56PM 40.0281 -107.0103 274° West 390 449 36,000  Level Denver Center
11:57PM 40.0356 -107.1675 274° West 390 449 36,000  Level Denver Center
11:58PM 40.0431 -107.3061 273° West 390 449 36,000  Level Denver Center
11:59PM 40.0481 -107.4444 273° West 385 443 36,000  Level Denver Center
12:00AM 40.0533 -107.5667 273° West 385 443 36,000  Level Denver Center
12:01AM 40.0600 -107.7158 273° West 385 443 36,000  Level Denver Center
12:02AM 40.0647 -107.8517 273° West 379 436 36,000  Level Denver Center
12:03AM 40.0694 -107.9819 274° West 379 436 36,000  Level Denver Center
12:04AM 40.0761 -108.1042 274° West 374 430 36,000  Level Denver Center
12:05AM 40.0844 -108.2511 272° West 374 430 36,000  Level Denver Center
12:06AM 40.0883 -108.3897 273° West 374 430 36,000  Level Denver Center
12:06AM 40.0914 -108.4717 274° West 376 433 36,000  Level Salt Lake Center
12:07AM 40.0986 -108.6222 273° West 375 432 36,000  Level Salt Lake Center
12:08AM 40.1039 -108.7517 273° West 375 432 36,000  Level Salt Lake Center
12:09AM 40.1086 -108.8825 272° West 377 434 36,100  Climbing Salt Lake Center
12:10AM 40.1133 -109.0331 273° West 375 432 36,000 -60 Descending Salt Lake Center
12:11AM 40.1183 -109.1600 273° West 371 427 36,000  Level Salt Lake Center
12:12AM 40.1239 -109.3067 273° West 365 420 36,000 -420 Level Salt Lake Center
12:13AM 40.1283 -109.4317 272° West 362 417 35,200 -840 Descending Salt Lake Center
12:14AM 40.1325 -109.5603 272° West 368 423 34,300 -1,020 Descending Salt Lake Center
12:15AM 40.1372 -109.7189 272° West 385 443 33,200 -1,080 Descending Salt Lake Center
12:17AM 40.1411 -109.8519 272° West 385 443 32,200 -1,080 Descending Salt Lake Center
12:18AM 40.1456 -110.0022 272° West 375 432 31,100 -1,080 Descending Salt Lake Center
12:19AM 40.1494 -110.1289 270° West 368 423 30,100 -600 Descending Salt Lake Center
12:20AM 40.1497 -110.2542 269° West 363 418 30,000 -60 Descending Salt Lake Center
12:21AM 40.1469 -110.3972 270° West 356 410 30,000  Level Salt Lake Center
12:22AM 40.1461 -110.5222 269° West 357 411 30,000 -240 Level Salt Lake Center
12:23AM 40.1444 -110.6478 269° West 360 414 29,600 -780 Descending Salt Lake Center
12:24AM 40.1433 -110.7931 269° West 359 413 28,500 -1,020 Descending Salt Lake Center
12:25AM 40.1417 -110.9186 269° West 361 415 27,600 -1,020 Descending Salt Lake Center
12:26AM 40.1397 -111.0647 269° West 367 422 26,500 -1,440 Descending Salt Lake Center
12:27AM 40.1378 -111.2006 269° West 370 426 24,700 -2,040 Descending Salt Lake Center
12:28AM 40.1358 -111.3347 266° West 367 422 22,400 -2,340 Descending Salt Lake Center
12:29AM 40.1278 -111.4725 279° West 369 425 20,300 -2,040 Descending Salt Lake Center
12:29AM 40.1394 -111.5725 306° West 361 415 19,000 -720 Descending Salt Lake Center
12:30AM 40.1967 -111.6739 308° West 349 402 19,000 -240 Level Salt Lake Center
12:31AM 40.2483 -111.7600 307° West 350 403 18,600 -780 Descending Salt Lake Center
12:32AM 40.3114 -111.8708 308° West 349 402 17,500 -1,140 Descending Salt Lake Center
12:33AM 40.3697 -111.9694 316° Northwest 344 396 16,400 -1,440 Descending Salt Lake Center
12:34AM 40.4383 -112.0561 355° North 344 396 14,700 -1,740 Descending Salt Lake Center
12:35AM 40.5311 -112.0669 355° North 340 391 12,900 -1,740 Descending Salt Lake Center
12:36AM 40.6236 -112.0781 354° North 337 388 11,200 -1,020 Descending Salt Lake Center
12:37AM 40.7142 -112.0900 356° North 329 379 10,900 -300 Descending Salt Lake Center
12:38AM 40.7950 -112.0967 355° North 312 359 10,700 -780 Descending Salt Lake Center
12:39AM 40.8361 -112.1014 355° North 303 349 9,800 -1,860 Descending Salt Lake Center
12:40AM 40.9192 -112.1111 32° Northeast 296 341 7,800 -1,920 Descending Salt Lake Center
12:40AM 40.9539 -112.0825 81° East 275 316 6,900 -1,620 Descending Salt Lake Center
12:41AM 40.9589 -112.0408 152° Southeast 269 310 6,200 -840 Descending Salt Lake Center
12:42AM 40.9103 -112.0061 180° South 214 246 5,700 -540 Descending Salt Lake Center
12:43AM 40.8631 -112.0064 174° South 168 193 5,200 -660 Descending Salt Lake Center
12:44AM 40.8178 -112.0000 174° South 164 189 4,400 -840 Descending Salt Lake Center